createdAt,value
2023-08-14T04:15:21.928Z,0.00
2023-08-14T04:16:21.873Z,0.00
2023-08-14T04:17:21.835Z,5.63
2023-08-14T04:18:21.954Z,5.63
2023-08-14T04:19:21.825Z,5.63
2023-08-14T04:20:21.817Z,5.63
2023-08-14T04:21:21.817Z,5.63
2023-08-14T04:22:21.808Z,5.63
2023-08-14T04:23:21.818Z,5.63
2023-08-14T04:24:21.839Z,5.63
2023-08-14T04:25:21.782Z,5.63
2023-08-14T04:26:21.794Z,5.63
2023-08-14T04:27:21.772Z,5.63
2023-08-14T04:28:21.766Z,5.63
2023-08-14T04:29:21.809Z,5.63
2023-08-14T04:30:21.777Z,5.63
2023-08-14T04:31:21.849Z,11.25
2023-08-14T04:32:21.766Z,11.25
2023-08-14T04:33:21.817Z,11.25
2023-08-14T04:34:21.753Z,11.25
2023-08-14T04:35:21.749Z,11.25
2023-08-14T04:36:21.745Z,11.25
2023-08-14T04:37:21.747Z,11.25
2023-08-14T04:38:21.740Z,11.25
2023-08-14T04:39:21.740Z,11.25
2023-08-14T04:40:21.758Z,11.25
2023-08-14T04:41:21.734Z,11.25
2023-08-14T04:42:21.744Z,11.25
2023-08-14T04:43:21.730Z,11.25
2023-08-14T04:44:21.717Z,16.88
2023-08-14T04:45:21.733Z,16.88
2023-08-14T04:46:21.833Z,16.88
2023-08-14T04:47:21.724Z,16.88
2023-08-14T04:48:21.739Z,16.88
2023-08-14T04:49:21.715Z,16.88
2023-08-14T04:50:21.722Z,16.88
2023-08-14T04:51:21.710Z,16.88
2023-08-14T04:52:21.714Z,16.88
2023-08-14T04:53:21.687Z,16.88
2023-08-14T04:54:21.674Z,16.88
2023-08-14T04:55:21.672Z,16.88
2023-08-14T04:56:21.680Z,16.88
2023-08-14T04:57:21.672Z,16.88
2023-08-14T04:58:22.361Z,22.50
2023-08-14T04:59:21.675Z,22.50
2023-08-14T05:00:21.703Z,22.50
2023-08-14T05:01:21.735Z,22.50
2023-08-14T05:02:21.709Z,22.50
2023-08-14T05:03:21.682Z,22.50
2023-08-14T05:04:21.682Z,22.50
2023-08-14T05:05:21.644Z,22.50
2023-08-14T05:06:21.659Z,22.50
2023-08-14T05:07:21.636Z,22.50
2023-08-14T05:08:21.635Z,22.50
2023-08-14T05:09:27.145Z,22.50
2023-08-14T05:10:21.635Z,22.50
2023-08-14T05:11:21.645Z,22.50
2023-08-14T05:12:21.637Z,28.13
2023-08-14T05:13:21.619Z,28.13
2023-08-14T05:14:21.661Z,28.13
2023-08-14T05:15:21.607Z,28.13
2023-08-14T05:16:21.642Z,28.13
2023-08-14T05:17:21.646Z,28.13
2023-08-14T05:18:21.600Z,28.13
2023-08-14T05:19:21.680Z,28.13
2023-08-14T05:20:21.603Z,28.13
2023-08-14T05:21:21.601Z,28.13
2023-08-14T05:22:21.626Z,28.13
2023-08-14T05:23:21.613Z,28.13
2023-08-14T05:24:21.604Z,28.13
2023-08-14T05:25:21.580Z,28.13
2023-08-14T05:26:21.589Z,28.13
2023-08-14T05:27:21.591Z,28.13
2023-08-14T05:28:21.615Z,28.13
2023-08-14T05:29:21.603Z,28.13
2023-08-14T05:30:21.581Z,33.75
2023-08-14T05:31:21.694Z,33.75
2023-08-14T05:32:21.576Z,33.75
2023-08-14T05:33:21.555Z,33.75
2023-08-14T05:34:21.559Z,33.75
2023-08-14T05:35:21.622Z,33.75
2023-08-14T05:36:21.551Z,33.75
2023-08-14T05:37:21.556Z,33.75
2023-08-14T05:38:21.557Z,33.75
2023-08-14T05:39:21.552Z,33.75
2023-08-14T05:40:21.560Z,33.75
2023-08-14T05:41:21.527Z,33.75
2023-08-14T05:42:21.576Z,33.75
2023-08-14T05:43:21.531Z,33.75
2023-08-14T05:44:21.525Z,39.38
2023-08-14T05:45:21.609Z,39.38
2023-08-14T05:46:21.532Z,39.38
2023-08-14T05:47:21.590Z,39.38
2023-08-14T05:48:21.519Z,33.75
2023-08-14T05:49:21.547Z,39.38
2023-08-14T05:50:21.505Z,39.38
2023-08-14T05:51:21.540Z,39.38
2023-08-14T05:52:21.605Z,39.38
2023-08-14T05:53:21.540Z,45.00
2023-08-14T05:54:21.499Z,45.00
2023-08-14T05:55:21.507Z,45.00
2023-08-14T05:56:21.525Z,45.00
2023-08-14T05:57:21.536Z,50.63
2023-08-14T05:58:21.517Z,50.63
2023-08-14T05:59:21.495Z,56.25
2023-08-14T06:00:21.487Z,61.88
2023-08-14T06:01:21.552Z,73.13
2023-08-14T06:02:21.837Z,78.75
2023-08-14T06:03:29.510Z,84.38
2023-08-14T06:04:21.549Z,90.00
2023-08-14T06:05:21.491Z,95.63
2023-08-14T06:06:21.469Z,101.25
2023-08-14T06:07:21.625Z,101.25
2023-08-14T06:08:21.475Z,106.88
2023-08-14T06:09:21.452Z,106.88
2023-08-14T06:10:21.476Z,101.25
2023-08-14T06:11:21.472Z,101.25
2023-08-14T06:12:23.104Z,106.88
2023-08-14T06:13:21.493Z,106.88
2023-08-14T06:14:21.439Z,106.88
2023-08-14T06:15:21.462Z,95.63
2023-08-14T06:16:21.502Z,95.63
2023-08-14T06:17:21.472Z,101.25
2023-08-14T06:18:21.499Z,106.88
2023-08-14T06:19:21.433Z,106.88
2023-08-14T06:20:21.553Z,95.63
2023-08-14T06:21:21.428Z,112.50
2023-08-14T06:22:21.427Z,118.13
2023-08-14T06:23:21.475Z,129.38
2023-08-14T06:24:21.417Z,135.00
2023-08-14T06:25:21.417Z,129.38
2023-08-14T06:26:21.404Z,123.75
2023-08-14T06:27:21.405Z,118.13
2023-08-14T06:28:21.440Z,112.50
2023-08-14T06:29:21.433Z,112.50
2023-08-14T06:30:21.454Z,106.88
2023-08-14T06:31:21.447Z,112.50
2023-08-14T06:32:21.658Z,106.88
2023-08-14T06:33:21.405Z,106.88
2023-08-14T06:34:21.413Z,112.50
2023-08-14T06:35:21.422Z,112.50
2023-08-14T06:36:21.425Z,118.13
2023-08-14T06:37:21.396Z,112.50
2023-08-14T06:38:21.391Z,112.50
2023-08-14T06:39:21.411Z,118.13
2023-08-14T06:40:21.481Z,112.50
2023-08-14T06:41:21.529Z,118.13
2023-08-14T06:42:21.404Z,118.13
2023-08-14T06:43:21.382Z,118.13
2023-08-14T06:44:21.376Z,123.75
2023-08-14T06:45:21.402Z,118.13
2023-08-14T06:46:21.439Z,123.75
2023-08-14T06:47:21.414Z,118.13
2023-08-14T06:48:21.381Z,129.38
2023-08-14T06:49:21.373Z,123.75
2023-08-14T06:50:21.373Z,123.75
2023-08-14T06:51:21.399Z,123.75
2023-08-14T06:52:21.705Z,118.13
2023-08-14T06:56:18.611Z,106.88
2023-08-14T06:57:18.543Z,112.50
2023-08-14T06:58:18.552Z,118.13
2023-08-14T06:59:18.583Z,123.75
2023-08-14T07:00:18.563Z,118.13
2023-08-14T07:01:18.635Z,112.50
2023-08-14T07:02:18.743Z,118.13
2023-08-14T07:03:18.715Z,118.13
2023-08-14T07:04:18.541Z,118.13
2023-08-14T07:05:18.576Z,123.75
2023-08-14T07:06:18.585Z,106.88
2023-08-14T07:07:18.547Z,112.50
2023-08-14T07:08:18.549Z,123.75
2023-08-14T07:09:18.532Z,118.13
2023-08-14T07:10:20.129Z,112.50
2023-08-14T07:11:18.532Z,118.13
2023-08-14T07:12:19.499Z,118.13
2023-08-14T07:13:18.539Z,112.50
2023-08-14T07:14:19.340Z,106.88
2023-08-14T07:15:18.573Z,112.50
2023-08-14T07:16:18.656Z,112.50
2023-08-14T07:17:18.545Z,106.88
2023-08-14T07:18:18.532Z,106.88
2023-08-14T07:19:18.566Z,112.50
2023-08-14T07:20:18.545Z,106.88
2023-08-14T07:21:18.560Z,106.88
2023-08-14T07:22:18.838Z,106.88
2023-08-14T07:23:18.525Z,112.50
2023-08-14T07:24:18.549Z,118.13
2023-08-14T07:25:18.573Z,118.13
2023-08-14T07:26:18.559Z,118.13
2023-08-14T07:27:18.523Z,123.75
2023-08-14T07:28:18.564Z,123.75
2023-08-14T07:29:19.756Z,129.38
2023-08-14T07:30:18.933Z,123.75
2023-08-14T07:31:18.584Z,129.38
2023-08-14T07:32:18.836Z,135.00
2023-08-14T07:33:18.531Z,129.38
2023-08-14T07:34:18.514Z,129.38
2023-08-14T07:35:18.532Z,123.75
2023-08-14T07:36:18.546Z,123.75
2023-08-14T07:37:18.508Z,118.13
2023-08-14T07:38:18.524Z,118.13
2023-08-14T07:39:18.529Z,112.50
2023-08-14T07:40:18.572Z,112.50
2023-08-14T07:41:18.518Z,112.50
2023-08-14T07:42:18.735Z,123.75
2023-08-14T07:43:18.551Z,118.13
2023-08-14T07:44:18.572Z,118.13
2023-08-14T07:45:18.545Z,112.50
2023-08-14T07:46:18.568Z,118.13
2023-08-14T07:47:18.536Z,123.75
2023-08-14T07:48:18.560Z,129.38
2023-08-14T07:49:18.499Z,129.38
2023-08-14T07:50:18.597Z,123.75
2023-08-14T07:51:18.498Z,140.63
2023-08-14T07:52:18.783Z,146.25
2023-08-14T07:53:18.519Z,140.63
2023-08-14T07:54:18.537Z,129.38
2023-08-14T07:55:18.498Z,146.25
2023-08-14T07:56:18.519Z,151.88
2023-08-14T07:57:18.523Z,151.88
2023-08-14T07:58:18.555Z,151.88
2023-08-14T07:59:18.547Z,151.88
2023-08-14T08:00:18.542Z,151.88
2023-08-14T08:01:18.545Z,146.25
2023-08-14T08:02:18.687Z,151.88
2023-08-14T08:03:18.560Z,151.88
2023-08-14T08:05:20.614Z,151.88
2023-08-14T08:06:18.504Z,157.50
2023-08-14T08:07:18.826Z,146.25
2023-08-14T08:08:18.517Z,146.25
2023-08-14T08:09:18.514Z,151.88
2023-08-14T08:10:18.491Z,146.25
2023-08-14T08:11:18.518Z,146.25
2023-08-14T08:12:18.709Z,140.63
2023-08-14T08:13:18.578Z,135.00
2023-08-14T08:14:18.526Z,123.75
2023-08-14T08:15:18.498Z,118.13
2023-08-14T08:16:18.667Z,112.50
2023-08-14T08:17:18.516Z,112.50
2023-08-14T08:18:18.521Z,106.88
2023-08-14T08:19:18.518Z,106.88
2023-08-14T08:20:18.499Z,106.88
2023-08-14T08:21:18.525Z,101.25
2023-08-14T08:22:18.804Z,101.25
2023-08-14T08:23:18.502Z,101.25
2023-08-14T08:24:18.493Z,101.25
2023-08-14T08:25:18.508Z,101.25
2023-08-14T08:26:18.516Z,101.25
2023-08-14T08:27:18.505Z,101.25
2023-08-14T08:28:18.521Z,101.25
2023-08-14T08:29:18.553Z,95.63
2023-08-14T08:30:18.525Z,95.63
2023-08-14T08:31:18.517Z,95.63
2023-08-14T08:32:18.830Z,95.63
2023-08-14T08:33:26.965Z,95.63
2023-08-14T08:34:18.511Z,95.63
2023-08-14T08:35:18.512Z,90.00
2023-08-14T08:36:18.522Z,90.00
2023-08-14T08:37:18.507Z,90.00
2023-08-14T08:38:18.689Z,90.00
2023-08-14T08:39:19.375Z,95.63
2023-08-14T08:40:18.528Z,95.63
2023-08-14T08:41:18.517Z,95.63
2023-08-14T08:42:18.672Z,95.63
2023-08-14T08:43:18.504Z,95.63
2023-08-14T08:44:18.531Z,95.63
2023-08-14T08:45:18.522Z,90.00
2023-08-14T08:46:18.652Z,90.00
2023-08-14T08:47:18.511Z,90.00
2023-08-14T08:48:18.557Z,90.00
2023-08-14T08:49:18.515Z,84.38
2023-08-14T08:50:18.538Z,90.00
2023-08-14T08:51:18.519Z,95.63
2023-08-14T08:52:18.768Z,106.88
2023-08-14T08:53:18.517Z,112.50
2023-08-14T08:54:18.520Z,135.00
2023-08-14T08:55:18.506Z,157.50
2023-08-14T08:56:18.531Z,146.25
2023-08-14T08:57:18.512Z,151.88
2023-08-14T08:58:18.523Z,174.38
2023-08-14T08:59:18.579Z,174.38
2023-08-14T09:00:18.743Z,174.38
2023-08-14T09:01:18.603Z,174.38
2023-08-14T09:02:18.972Z,157.50
2023-08-14T09:03:18.675Z,157.50
2023-08-14T09:04:18.600Z,163.13
2023-08-14T09:05:18.530Z,151.88
2023-08-14T09:06:18.568Z,140.63
2023-08-14T09:07:18.523Z,140.63
2023-08-14T09:08:18.532Z,140.63
2023-08-14T09:09:18.513Z,135.00
2023-08-14T09:10:18.525Z,135.00
2023-08-14T09:11:18.529Z,129.38
2023-08-14T09:12:18.733Z,129.38
2023-08-14T09:13:24.664Z,123.75
2023-08-14T09:14:18.520Z,118.13
2023-08-14T09:15:18.545Z,106.88
2023-08-14T09:16:18.595Z,101.25
2023-08-14T09:17:18.546Z,95.63
2023-08-14T09:18:18.569Z,90.00
2023-08-14T09:19:18.510Z,90.00
2023-08-14T09:20:24.067Z,78.75
2023-08-14T09:21:18.530Z,78.75
2023-08-14T09:22:18.527Z,78.75
2023-08-14T09:23:18.524Z,78.75
2023-08-14T09:24:18.541Z,84.38
2023-08-14T09:25:18.524Z,95.63
2023-08-14T09:26:18.531Z,90.00
2023-08-14T09:27:18.658Z,101.25
2023-08-14T09:28:18.536Z,95.63
2023-08-14T09:29:18.893Z,101.25
2023-08-14T09:30:18.558Z,101.25
2023-08-14T09:31:18.547Z,101.25
2023-08-14T09:32:18.730Z,101.25
2023-08-14T09:33:18.570Z,101.25
2023-08-14T09:34:18.586Z,101.25
2023-08-14T09:35:18.576Z,101.25
2023-08-14T09:36:18.573Z,101.25
2023-08-14T09:37:18.528Z,101.25
2023-08-14T09:38:18.536Z,101.25
2023-08-14T09:39:18.958Z,101.25
2023-08-14T09:40:18.544Z,101.25
2023-08-14T09:41:18.561Z,101.25
2023-08-14T09:42:18.715Z,106.88
2023-08-14T09:43:18.531Z,106.88
2023-08-14T09:44:18.575Z,106.88
2023-08-14T09:45:18.561Z,106.88
2023-08-14T09:46:18.551Z,101.25
2023-08-14T09:47:18.609Z,84.38
2023-08-14T09:48:18.590Z,78.75
2023-08-14T09:49:18.563Z,106.88
2023-08-14T09:50:18.565Z,101.25
2023-08-14T09:51:18.552Z,67.50
2023-08-14T09:52:18.765Z,78.75
2023-08-14T09:53:18.591Z,84.38
2023-08-14T09:54:18.557Z,84.38
2023-08-14T09:55:18.589Z,106.88
2023-08-14T09:56:18.581Z,84.38
2023-08-14T09:57:18.590Z,61.88
2023-08-14T09:58:18.623Z,106.88
2023-08-14T09:59:18.567Z,101.25
2023-08-14T10:00:18.655Z,106.88
2023-08-14T10:01:18.625Z,101.25
2023-08-14T10:03:51.125Z,101.25
2023-08-14T10:04:51.116Z,101.25
2023-08-14T10:05:51.150Z,101.25
2023-08-14T10:06:51.122Z,101.25
2023-08-14T10:07:51.152Z,101.25
2023-08-14T10:08:51.144Z,101.25
2023-08-14T10:09:51.136Z,101.25
2023-08-14T10:11:05.815Z,101.25
2023-08-14T10:11:51.134Z,101.25
2023-08-14T10:12:51.156Z,101.25
2023-08-14T10:13:51.225Z,101.25
2023-08-14T10:14:51.166Z,101.25
2023-08-14T10:15:51.162Z,101.25
2023-08-14T10:16:51.156Z,101.25
2023-08-14T10:17:51.222Z,101.25
2023-08-14T10:29:46.548Z,112.50
2023-08-14T10:30:46.499Z,112.50
2023-08-14T10:31:46.467Z,112.50
2023-08-14T10:32:46.498Z,112.50
2023-08-14T10:33:46.476Z,118.13
2023-08-14T10:34:46.461Z,118.13
2023-08-14T10:35:46.485Z,118.13
2023-08-14T10:36:46.464Z,118.13
2023-08-14T10:37:56.233Z,123.75
2023-08-14T10:38:46.537Z,123.75
2023-08-14T10:39:46.496Z,123.75
2023-08-14T10:40:48.281Z,123.75
2023-08-14T10:41:46.539Z,123.75
2023-08-14T10:42:46.477Z,123.75
2023-08-14T10:43:46.519Z,123.75
2023-08-14T10:44:46.479Z,123.75
2023-08-14T10:45:46.494Z,123.75
2023-08-14T10:46:46.481Z,129.38
2023-08-14T10:47:46.560Z,129.38
2023-08-14T10:48:46.534Z,129.38
2023-08-14T10:49:46.488Z,129.38
2023-08-14T10:50:46.512Z,135.00
2023-08-14T10:51:46.506Z,135.00
2023-08-14T10:52:46.499Z,135.00
2023-08-14T10:53:46.528Z,135.00
2023-08-14T10:54:46.512Z,135.00
2023-08-14T10:55:46.579Z,135.00
2023-08-14T10:56:46.583Z,135.00
2023-08-14T10:57:46.543Z,140.63
2023-08-14T10:58:46.569Z,140.63
2023-08-14T10:59:46.531Z,140.63
2023-08-14T11:00:46.561Z,146.25
2023-08-14T11:01:46.645Z,146.25
2023-08-14T11:02:46.605Z,146.25
2023-08-14T11:03:46.613Z,146.25
2023-08-14T11:04:46.537Z,146.25
2023-08-14T11:05:46.594Z,151.88
2023-08-14T11:06:46.556Z,151.88
2023-08-14T11:07:46.576Z,151.88
2023-08-14T11:08:46.589Z,157.50
2023-08-14T11:09:46.607Z,157.50
2023-08-14T11:10:46.581Z,157.50
2023-08-14T11:11:46.579Z,163.13
2023-08-14T11:12:46.585Z,163.13
2023-08-14T11:13:46.641Z,168.75
2023-08-14T11:14:46.608Z,174.38
2023-08-14T11:15:46.757Z,174.38
2023-08-14T11:16:46.672Z,174.38
2023-08-14T11:17:46.655Z,180.00
2023-08-14T11:18:46.601Z,180.00
2023-08-14T11:19:46.650Z,185.63
2023-08-14T11:20:46.667Z,191.25
2023-08-14T11:21:46.638Z,191.25
2023-08-14T11:22:46.666Z,191.25
2023-08-14T11:23:46.676Z,191.25
2023-08-14T11:24:46.675Z,196.88
2023-08-14T11:25:46.653Z,196.88
2023-08-14T11:26:46.637Z,202.50
2023-08-14T11:27:46.647Z,202.50
2023-08-14T11:29:53.782Z,208.13
2023-08-14T11:30:46.665Z,208.13
2023-08-14T11:31:49.520Z,213.75
2023-08-14T11:32:46.697Z,191.25
2023-08-14T11:33:46.716Z,213.75
2023-08-14T11:34:46.698Z,213.75
2023-08-14T11:35:47.127Z,219.38
2023-08-14T11:36:46.720Z,225.00
2023-08-14T11:37:46.697Z,225.00
2023-08-14T11:38:48.318Z,225.00
2023-08-14T11:39:46.732Z,230.63
2023-08-14T11:40:46.709Z,230.63
2023-08-14T11:41:46.758Z,230.63
2023-08-14T11:42:46.739Z,236.25
2023-08-14T11:43:47.017Z,236.25
2023-08-14T11:44:46.785Z,236.25
2023-08-14T11:45:46.752Z,241.88
2023-08-14T11:46:46.773Z,241.88
2023-08-14T11:47:46.896Z,247.50
2023-08-14T11:48:46.765Z,253.13
2023-08-14T11:49:46.828Z,253.13
2023-08-14T11:50:46.807Z,253.13
2023-08-14T11:51:46.796Z,264.38
2023-08-14T11:52:46.792Z,275.63
2023-08-14T11:53:46.804Z,275.63
2023-08-14T11:54:46.821Z,281.25
2023-08-14T11:55:46.833Z,298.13
2023-08-14T11:56:46.826Z,298.13
2023-08-14T11:57:46.826Z,298.13
2023-08-14T11:58:51.730Z,298.13
2023-08-14T11:59:46.848Z,303.75
2023-08-14T12:00:46.907Z,303.75
2023-08-14T12:01:46.857Z,315.00
2023-08-14T12:02:46.904Z,315.00
2023-08-14T12:03:46.973Z,326.25
2023-08-14T12:04:46.870Z,326.25
2023-08-14T12:05:46.921Z,331.88
2023-08-14T12:06:46.887Z,337.50
2023-08-14T12:07:46.972Z,343.13
2023-08-14T12:08:46.897Z,343.13
2023-08-14T12:09:46.919Z,354.38
2023-08-14T12:10:46.917Z,360.00
2023-08-14T12:11:46.932Z,371.25
2023-08-14T12:12:55.152Z,376.88
2023-08-14T12:13:46.947Z,376.88
2023-08-14T12:14:46.941Z,360.00
2023-08-14T12:15:47.016Z,382.50
2023-08-14T12:16:46.982Z,388.13
2023-08-14T12:17:47.055Z,382.50
2023-08-14T12:18:47.004Z,393.75
2023-08-14T12:19:46.991Z,388.13
2023-08-14T12:20:47.018Z,393.75
2023-08-14T12:21:47.025Z,405.00
2023-08-14T12:22:55.600Z,410.63
2023-08-14T12:23:47.023Z,421.88
2023-08-14T12:24:47.046Z,438.75
2023-08-14T12:25:47.035Z,450.00
2023-08-14T12:26:47.066Z,315.00
2023-08-14T12:27:47.067Z,433.13
2023-08-14T12:28:47.067Z,421.88
2023-08-14T12:29:47.092Z,455.63
2023-08-14T12:30:47.110Z,472.50
2023-08-14T12:31:47.131Z,478.13
2023-08-14T12:32:47.161Z,466.88
2023-08-14T12:33:53.491Z,500.63
2023-08-14T12:34:47.113Z,500.63
2023-08-14T12:35:47.230Z,511.88
2023-08-14T12:36:47.161Z,517.50
2023-08-14T12:37:47.197Z,506.25
2023-08-14T12:38:47.164Z,511.88
2023-08-14T12:39:47.173Z,517.50
2023-08-14T12:40:47.164Z,506.25
2023-08-14T12:41:47.217Z,506.25
2023-08-14T12:42:47.196Z,551.25
2023-08-14T12:43:47.240Z,517.50
2023-08-14T12:44:47.223Z,528.75
2023-08-14T12:45:47.207Z,562.50
2023-08-14T12:46:47.277Z,562.50
2023-08-14T12:47:47.276Z,585.00
2023-08-14T12:48:47.250Z,624.38
2023-08-14T12:49:47.244Z,613.13
2023-08-14T12:50:47.258Z,601.88
2023-08-14T12:51:47.296Z,601.88
2023-08-14T12:52:47.309Z,641.25
2023-08-14T12:53:47.355Z,658.13
2023-08-14T12:54:47.304Z,444.38
2023-08-14T12:55:54.787Z,624.38
2023-08-14T12:56:47.333Z,517.50
2023-08-14T12:57:48.806Z,466.88
2023-08-14T12:58:49.252Z,399.38
2023-08-14T12:59:50.726Z,517.50
2023-08-14T13:00:47.416Z,421.88
2023-08-14T13:01:48.003Z,495.00
2023-08-14T13:02:47.395Z,585.00
2023-08-14T13:03:47.433Z,855.00
2023-08-14T13:04:47.406Z,720.00
2023-08-14T13:05:47.417Z,393.75
2023-08-14T13:06:47.423Z,596.25
2023-08-14T13:07:47.419Z,658.13
2023-08-14T13:08:47.422Z,843.75
2023-08-14T13:09:47.450Z,787.50
2023-08-14T13:10:47.439Z,826.88
2023-08-14T13:11:47.549Z,838.13
2023-08-14T13:12:47.442Z,871.88
2023-08-14T13:13:47.457Z,894.38
2023-08-14T13:14:47.475Z,877.50
2023-08-14T13:15:47.487Z,860.63
2023-08-14T13:16:47.591Z,810.00
2023-08-14T13:17:49.278Z,770.63
2023-08-14T13:18:47.528Z,765.00
2023-08-14T13:19:47.532Z,776.25
2023-08-14T13:20:47.544Z,793.13
2023-08-14T13:21:47.544Z,810.00
2023-08-14T13:22:47.567Z,776.25
2023-08-14T13:23:51.128Z,860.63
2023-08-14T13:24:47.554Z,748.13
2023-08-14T13:25:47.632Z,720.00
2023-08-14T13:26:47.604Z,765.00
2023-08-14T13:27:47.668Z,781.88
2023-08-14T13:28:47.619Z,731.25
2023-08-14T13:29:47.642Z,821.25
2023-08-14T13:30:47.678Z,849.38
2023-08-14T13:31:47.667Z,888.75
2023-08-14T13:32:47.674Z,883.13
2023-08-14T13:33:47.664Z,877.50
2023-08-14T13:36:02.306Z,894.38
2023-08-14T13:37:02.281Z,883.13
2023-08-14T13:37:50.949Z,888.75
2023-08-14T13:38:50.940Z,849.38
2023-08-14T13:39:50.930Z,815.63
2023-08-14T13:40:50.977Z,742.50
2023-08-14T13:41:50.964Z,798.75
2023-08-14T13:42:50.988Z,798.75
2023-08-14T13:43:50.985Z,826.88
2023-08-14T13:44:51.474Z,776.25
2023-08-14T13:45:51.035Z,838.13
2023-08-14T13:46:51.072Z,849.38
2023-08-14T13:47:56.046Z,815.63
2023-08-14T13:48:51.038Z,838.13
2023-08-14T13:49:51.066Z,849.38
2023-08-14T13:50:51.115Z,855.00
2023-08-14T13:51:51.083Z,866.25
2023-08-14T13:52:51.080Z,691.88
2023-08-14T13:53:51.103Z,877.50
2023-08-14T13:54:51.431Z,866.25
2023-08-14T13:55:52.629Z,916.88
2023-08-14T13:56:55.171Z,911.25
2023-08-14T13:57:51.134Z,753.75
2023-08-14T13:58:51.156Z,849.38
2023-08-14T13:59:51.175Z,765.00
2023-08-14T14:00:51.195Z,877.50
2023-08-14T14:01:51.209Z,866.25
2023-08-14T14:02:51.210Z,905.63
2023-08-14T14:03:51.227Z,900.00
2023-08-14T14:04:53.383Z,967.50
2023-08-14T14:05:51.304Z,1198.13
2023-08-14T14:06:51.249Z,978.75
2023-08-14T14:07:54.349Z,1395.00
2023-08-14T14:08:51.282Z,1653.75
2023-08-14T14:09:51.276Z,1462.50
2023-08-14T14:10:51.307Z,1951.88
2023-08-14T14:11:51.301Z,1501.88
2023-08-14T14:13:51.393Z,2182.50
2023-08-14T14:14:51.323Z,1951.88
2023-08-14T14:15:51.390Z,2103.75
2023-08-14T14:16:51.343Z,2025.00
2023-08-14T14:17:51.590Z,562.50
2023-08-14T14:18:51.427Z,2120.63
2023-08-14T14:19:51.390Z,1980.00
2023-08-14T14:20:51.391Z,1878.75
2023-08-14T14:21:51.414Z,1918.13
2023-08-14T14:22:51.443Z,2446.88
2023-08-14T14:23:51.438Z,2165.63
2023-08-14T14:24:51.456Z,2503.13
2023-08-14T14:25:51.445Z,1861.88
2023-08-14T14:26:51.460Z,337.50
2023-08-14T14:27:51.476Z,1282.50
2023-08-14T14:28:51.542Z,309.38
2023-08-14T14:29:51.489Z,1091.25
2023-08-14T14:30:51.526Z,376.88
2023-08-14T14:31:51.635Z,388.13
2023-08-14T14:32:51.648Z,776.25
2023-08-14T14:33:51.687Z,309.38
2023-08-14T14:34:51.540Z,298.13
2023-08-14T14:35:51.552Z,270.00
2023-08-14T14:37:51.571Z,641.25
2023-08-14T14:38:51.596Z,236.25
2023-08-14T14:39:51.613Z,320.63
2023-08-14T14:40:51.597Z,241.88
2023-08-14T14:41:51.611Z,230.63
2023-08-14T14:42:51.682Z,315.00
2023-08-14T14:43:51.631Z,219.38
2023-08-14T14:44:51.666Z,219.38
2023-08-14T14:45:51.660Z,241.88
2023-08-14T14:46:51.660Z,320.63
2023-08-14T14:47:51.746Z,326.25
2023-08-14T14:48:51.673Z,1310.63
2023-08-14T14:49:51.711Z,1710.00
2023-08-14T14:50:51.686Z,1878.75
2023-08-14T14:51:51.691Z,1378.13
2023-08-14T14:52:51.723Z,1310.63
2023-08-14T14:53:51.721Z,1186.88
2023-08-14T14:54:51.719Z,506.25
2023-08-14T14:55:51.729Z,1299.38
2023-08-14T14:56:51.732Z,742.50
2023-08-14T14:57:51.761Z,433.13
2023-08-14T14:58:51.764Z,1046.25
2023-08-14T14:59:51.751Z,1006.88
2023-08-14T15:00:51.832Z,826.88
2023-08-14T15:01:51.766Z,1293.75
2023-08-14T15:02:51.846Z,2086.88
2023-08-14T15:03:51.903Z,2013.75
2023-08-14T15:04:51.787Z,2047.50
2023-08-14T15:05:51.806Z,2182.50
2023-08-14T15:06:51.815Z,2148.75
2023-08-14T15:07:51.823Z,2086.88
2023-08-14T15:08:51.842Z,2064.38
2023-08-14T15:09:51.852Z,1406.25
2023-08-14T15:10:51.872Z,1923.75
2023-08-14T15:11:51.855Z,1968.75
2023-08-14T15:12:51.853Z,1946.25
2023-08-14T15:13:51.895Z,1569.38
2023-08-14T15:14:51.867Z,916.88
2023-08-14T15:15:51.886Z,691.88
2023-08-14T15:16:51.913Z,888.75
2023-08-14T15:17:51.961Z,748.13
2023-08-14T15:18:51.936Z,1243.13
2023-08-14T15:19:51.931Z,1428.75
2023-08-14T15:20:51.906Z,1726.88
2023-08-14T15:21:51.916Z,1873.13
2023-08-14T15:22:51.921Z,1614.38
2023-08-14T15:23:51.954Z,1215.00
2023-08-14T15:24:51.984Z,416.25
2023-08-14T15:25:51.973Z,624.38
2023-08-14T15:26:52.368Z,1096.88
2023-08-14T15:27:51.985Z,618.75
2023-08-14T15:28:51.992Z,815.63
2023-08-14T15:29:52.015Z,556.88
2023-08-14T15:30:52.012Z,708.75
2023-08-14T15:31:52.028Z,478.13
2023-08-14T15:32:52.099Z,821.25
2023-08-14T15:33:52.626Z,1119.38
2023-08-14T15:34:52.058Z,1001.25
2023-08-14T15:35:52.071Z,663.75
2023-08-14T15:36:52.061Z,320.63
2023-08-14T15:37:52.079Z,258.75
2023-08-14T15:38:52.100Z,241.88
2023-08-14T15:39:52.126Z,247.50
2023-08-14T15:40:52.108Z,286.88
2023-08-14T15:41:52.090Z,315.00
2023-08-14T15:42:52.097Z,315.00
2023-08-14T15:43:52.140Z,286.88
2023-08-14T15:44:52.124Z,270.00
2023-08-14T15:45:52.161Z,253.13
2023-08-14T15:46:52.151Z,292.50
2023-08-14T15:47:52.156Z,292.50
2023-08-14T15:48:52.146Z,281.25
2023-08-14T15:49:52.141Z,275.63
2023-08-14T15:50:52.168Z,270.00
2023-08-14T15:51:52.162Z,247.50
2023-08-14T15:52:52.168Z,247.50
2023-08-14T15:53:52.174Z,258.75
2023-08-14T15:54:53.932Z,241.88
2023-08-14T15:55:52.198Z,230.63
2023-08-14T15:56:54.117Z,241.88
2023-08-14T15:57:52.192Z,247.50
2023-08-14T15:58:52.208Z,230.63
2023-08-14T15:59:52.228Z,225.00
2023-08-14T16:00:52.288Z,219.38
2023-08-14T16:01:52.240Z,213.75
2023-08-14T16:02:52.267Z,219.38
2023-08-14T16:03:52.284Z,208.13
2023-08-14T16:04:52.272Z,202.50
2023-08-14T16:05:52.260Z,202.50
2023-08-14T16:06:52.244Z,202.50
2023-08-14T16:07:52.245Z,196.88
2023-08-14T16:08:52.276Z,196.88
2023-08-14T16:09:52.249Z,208.13
2023-08-14T16:13:49.679Z,185.63
2023-08-14T16:14:49.692Z,185.63
2023-08-14T16:15:49.675Z,180.00
2023-08-14T16:16:49.751Z,180.00
2023-08-14T16:29:09.840Z,157.50
2023-08-14T16:30:09.820Z,151.88
2023-08-14T16:31:09.828Z,157.50
2023-08-14T16:32:09.780Z,157.50
2023-08-14T16:33:09.842Z,157.50
2023-08-14T16:34:10.003Z,163.13
2023-08-14T16:35:09.795Z,168.75
2023-08-14T16:36:09.811Z,163.13
2023-08-14T16:37:09.811Z,163.13
2023-08-14T16:38:09.797Z,168.75
2023-08-14T16:39:11.580Z,174.38
2023-08-14T16:40:09.836Z,174.38
2023-08-14T16:41:09.808Z,180.00
2023-08-14T16:42:09.838Z,180.00
2023-08-14T16:43:09.811Z,174.38
2023-08-14T16:44:09.818Z,168.75
2023-08-14T16:45:10.610Z,168.75
2023-08-14T16:46:09.833Z,168.75
2023-08-14T16:47:09.828Z,168.75
2023-08-14T16:48:09.830Z,174.38
2023-08-14T16:49:09.843Z,174.38
2023-08-14T16:50:09.879Z,168.75
2023-08-14T16:51:09.851Z,168.75
2023-08-14T16:52:09.850Z,157.50
2023-08-14T16:53:09.846Z,157.50
2023-08-14T16:54:09.861Z,163.13
2023-08-14T16:55:09.868Z,163.13
2023-08-14T16:56:09.857Z,157.50
2023-08-14T16:57:09.852Z,151.88
2023-08-14T16:58:09.864Z,140.63
2023-08-14T16:59:09.871Z,123.75
2023-08-14T17:00:09.881Z,112.50
2023-08-14T17:01:09.959Z,106.88
2023-08-14T17:02:09.918Z,95.63
2023-08-14T17:03:09.981Z,90.00
2023-08-14T17:04:09.931Z,90.00
2023-08-14T17:05:09.881Z,78.75
2023-08-14T17:06:09.906Z,78.75
2023-08-14T17:07:09.894Z,78.75
2023-08-14T17:08:10.412Z,84.38
2023-08-14T17:09:09.917Z,84.38
2023-08-14T17:10:09.890Z,84.38
2023-08-14T17:11:09.929Z,84.38
2023-08-14T17:12:09.901Z,84.38
2023-08-14T17:13:09.899Z,78.75
2023-08-14T17:14:09.945Z,67.50
2023-08-14T17:15:09.931Z,67.50
2023-08-14T17:16:09.940Z,67.50
2023-08-14T17:17:09.949Z,67.50
2023-08-14T17:18:09.983Z,67.50
2023-08-14T17:19:09.935Z,67.50
2023-08-14T17:20:09.920Z,67.50
2023-08-14T17:21:09.932Z,67.50
2023-08-14T17:22:09.934Z,67.50